Y55 weather

Crandon Municipal Airport
Crandon, Wisconsin, United States

Public forecast

Using degrees Fahrenheit for public forecast. Weather courtesy of forecast.io.

Closest aviation weather report (METAR) to Crandon Municipal Airport

Closest report is Langlade County Airport, 23.0 nm (42.6 km) SSW. Retrieved 2019/10/15 00:35 UTC (0 seconds ago):

KAIG 150035Z AUTO 21004KT 10SM CLR 02/00 A2997 RMK AO2 T00170000

Closest aviation forecast (TAF) to Crandon Municipal Airport

Closest forecast is Rhinelander Oneida County Airport, 23.5 nm (43.5 km) WNW. Retrieved 2019-10-15 00:33 UTC (0 seconds ago):

TAF KRHI 142331Z 1500/1524 22003KT P6SM SCT250 FM150300 18005KT P6SM BKN120 FM150600 13008KT P6SM BKN060 FM150900 12007KT P6SM -RA OVC035 WS019/18035KT FM151300 13008G13KT 6SM -RA OVC012 WS019/18035KT FM151500 13008KT 2SM -SHRA OVC006 FM151900 08007KT 3SM -SHRA OVC006